sensor_id;sensor_type;location;lat;lon;timestamp;temperature;humidity
19941;DHT22;10132;50.864;5.176;2024-02-15T00:01:18;12.90;99.90
19941;DHT22;10132;50.864;5.176;2024-02-15T00:03:20;12.90;99.90
19941;DHT22;10132;50.864;5.176;2024-02-15T00:05:22;12.90;99.90
19941;DHT22;10132;50.864;5.176;2024-02-15T00:07:24;12.90;99.90
19941;DHT22;10132;50.864;5.176;2024-02-15T00:09:27;13.00;99.90
19941;DHT22;10132;50.864;5.176;2024-02-15T00:11:29;12.90;99.90
19941;DHT22;10132;50.864;5.176;2024-02-15T00:13:32;12.90;99.90
19941;DHT22;10132;50.864;5.176;2024-02-15T00:15:34;13.00;99.90
19941;DHT22;10132;50.864;5.176;2024-02-15T00:17:37;12.90;99.90
19941;DHT22;10132;50.864;5.176;2024-02-15T00:19:39;12.90;99.90
19941;DHT22;10132;50.864;5.176;2024-02-15T00:21:43;13.00;99.90
19941;DHT22;10132;50.864;5.176;2024-02-15T00:23:45;12.90;99.90
19941;DHT22;10132;50.864;5.176;2024-02-15T00:25:46;12.90;99.90
19941;DHT22;10132;50.864;5.176;2024-02-15T00:27:48;12.90;99.90
19941;DHT22;10132;50.864;5.176;2024-02-15T00:29:51;12.90;99.90
19941;DHT22;10132;50.864;5.176;2024-02-15T00:31:53;12.90;99.90
19941;DHT22;10132;50.864;5.176;2024-02-15T00:33:55;12.90;99.90
19941;DHT22;10132;50.864;5.176;2024-02-15T00:35:57;12.90;99.90
19941;DHT22;10132;50.864;5.176;2024-02-15T00:37:59;13.00;99.90
19941;DHT22;10132;50.864;5.176;2024-02-15T00:40:01;13.00;99.90
19941;DHT22;10132;50.864;5.176;2024-02-15T00:42:04;13.00;99.90
19941;DHT22;10132;50.864;5.176;2024-02-15T00:44:09;12.90;99.90
19941;DHT22;10132;50.864;5.176;2024-02-15T00:46:13;12.90;99.90
19941;DHT22;10132;50.864;5.176;2024-02-15T00:48:15;12.90;99.90
19941;DHT22;10132;50.864;5.176;2024-02-15T00:50:16;12.90;99.90
19941;DHT22;10132;50.864;5.176;2024-02-15T00:52:18;12.90;99.90
19941;DHT22;10132;50.864;5.176;2024-02-15T00:54:20;12.90;99.90
19941;DHT22;10132;50.864;5.176;2024-02-15T00:56:23;12.90;99.90
19941;DHT22;10132;50.864;5.176;2024-02-15T00:58:25;12.90;99.90
19941;DHT22;10132;50.864;5.176;2024-02-15T01:00:27;12.90;99.90
19941;DHT22;10132;50.864;5.176;2024-02-15T01:02:31;12.90;99.90
19941;DHT22;10132;50.864;5.176;2024-02-15T01:04:34;13.00;99.90
19941;DHT22;10132;50.864;5.176;2024-02-15T01:06:37;13.00;99.90
19941;DHT22;10132;50.864;5.176;2024-02-15T01:08:38;13.00;99.90
19941;DHT22;10132;50.864;5.176;2024-02-15T01:10:41;13.00;99.90
19941;DHT22;10132;50.864;5.176;2024-02-15T01:12:43;13.00;99.90
19941;DHT22;10132;50.864;5.176;2024-02-15T01:14:45;13.00;99.90
19941;DHT22;10132;50.864;5.176;2024-02-15T01:16:48;13.00;99.90
19941;DHT22;10132;50.864;5.176;2024-02-15T01:18:51;13.00;99.90
19941;DHT22;10132;50.864;5.176;2024-02-15T01:20:53;13.10;99.90
19941;DHT22;10132;50.864;5.176;2024-02-15T01:22:55;13.00;99.90
19941;DHT22;10132;50.864;5.176;2024-02-15T01:24:57;13.00;99.90
19941;DHT22;10132;50.864;5.176;2024-02-15T01:26:58;13.00;99.90
19941;DHT22;10132;50.864;5.176;2024-02-15T01:29:02;13.10;99.90
19941;DHT22;10132;50.864;5.176;2024-02-15T01:31:04;13.10;99.90
19941;DHT22;10132;50.864;5.176;2024-02-15T01:33:07;13.20;99.90
19941;DHT22;10132;50.864;5.176;2024-02-15T01:35:10;13.10;99.90
19941;DHT22;10132;50.864;5.176;2024-02-15T01:37:12;13.10;99.90
19941;DHT22;10132;50.864;5.176;2024-02-15T01:39:14;13.10;99.90
19941;DHT22;10132;50.864;5.176;2024-02-15T01:41:15;13.10;99.90
19941;DHT22;10132;50.864;5.176;2024-02-15T01:43:17;13.10;99.90
19941;DHT22;10132;50.864;5.176;2024-02-15T01:45:19;13.10;99.90
19941;DHT22;10132;50.864;5.176;2024-02-15T01:47:22;13.20;99.90
19941;DHT22;10132;50.864;5.176;2024-02-15T01:49:25;13.20;99.90
19941;DHT22;10132;50.864;5.176;2024-02-15T01:51:30;13.20;99.90
19941;DHT22;10132;50.864;5.176;2024-02-15T01:53:31;13.10;99.90
19941;DHT22;10132;50.864;5.176;2024-02-15T01:55:35;13.10;99.90
19941;DHT22;10132;50.864;5.176;2024-02-15T01:57:37;13.10;99.90
19941;DHT22;10132;50.864;5.176;2024-02-15T01:59:39;13.10;99.90
19941;DHT22;10132;50.864;5.176;2024-02-15T02:01:41;13.10;99.90
19941;DHT22;10132;50.864;5.176;2024-02-15T02:03:44;13.10;99.90
19941;DHT22;10132;50.864;5.176;2024-02-15T02:05:46;13.10;99.90
19941;DHT22;10132;50.864;5.176;2024-02-15T02:07:49;13.10;99.90
19941;DHT22;10132;50.864;5.176;2024-02-15T02:09:51;13.10;99.90
19941;DHT22;10132;50.864;5.176;2024-02-15T02:11:53;13.10;99.90
19941;DHT22;10132;50.864;5.176;2024-02-15T02:13:56;13.10;99.90
19941;DHT22;10132;50.864;5.176;2024-02-15T02:15:57;13.10;99.90
19941;DHT22;10132;50.864;5.176;2024-02-15T02:18:00;13.10;99.90
19941;DHT22;10132;50.864;5.176;2024-02-15T02:20:03;13.00;99.90
19941;DHT22;10132;50.864;5.176;2024-02-15T02:22:09;13.00;99.90
19941;DHT22;10132;50.864;5.176;2024-02-15T02:24:18;13.00;99.90
19941;DHT22;10132;50.864;5.176;2024-02-15T02:26:23;13.00;99.90
19941;DHT22;10132;50.864;5.176;2024-02-15T02:28:24;13.00;99.90
19941;DHT22;10132;50.864;5.176;2024-02-15T02:30:26;13.00;99.90
19941;DHT22;10132;50.864;5.176;2024-02-15T02:32:30;13.10;99.90
19941;DHT22;10132;50.864;5.176;2024-02-15T02:34:32;13.10;99.90
19941;DHT22;10132;50.864;5.176;2024-02-15T02:36:34;13.10;99.90
19941;DHT22;10132;50.864;5.176;2024-02-15T02:38:36;13.10;99.90
19941;DHT22;10132;50.864;5.176;2024-02-15T02:40:39;13.10;99.90
19941;DHT22;10132;50.864;5.176;2024-02-15T02:42:49;13.10;99.90
19941;DHT22;10132;50.864;5.176;2024-02-15T02:44:51;13.10;99.90
19941;DHT22;10132;50.864;5.176;2024-02-15T02:46:53;13.10;99.90
19941;DHT22;10132;50.864;5.176;2024-02-15T02:48:54;13.10;99.90
19941;DHT22;10132;50.864;5.176;2024-02-15T02:50:56;13.10;99.90
19941;DHT22;10132;50.864;5.176;2024-02-15T02:52:58;13.10;99.90
19941;DHT22;10132;50.864;5.176;2024-02-15T02:55:00;13.10;99.90
19941;DHT22;10132;50.864;5.176;2024-02-15T02:57:01;13.10;99.90
19941;DHT22;10132;50.864;5.176;2024-02-15T02:59:08;13.10;99.90
19941;DHT22;10132;50.864;5.176;2024-02-15T03:01:10;13.10;99.90
19941;DHT22;10132;50.864;5.176;2024-02-15T03:03:13;13.20;99.90
19941;DHT22;10132;50.864;5.176;2024-02-15T03:05:14;13.20;99.90
19941;DHT22;10132;50.864;5.176;2024-02-15T03:07:16;13.20;99.90
19941;DHT22;10132;50.864;5.176;2024-02-15T03:09:19;13.10;99.90
19941;DHT22;10132;50.864;5.176;2024-02-15T03:11:21;13.10;99.90
19941;DHT22;10132;50.864;5.176;2024-02-15T03:13:23;13.10;99.90
19941;DHT22;10132;50.864;5.176;2024-02-15T03:15:26;13.10;99.90
19941;DHT22;10132;50.864;5.176;2024-02-15T03:17:27;13.00;99.90
19941;DHT22;10132;50.864;5.176;2024-02-15T03:19:32;13.10;99.90
19941;DHT22;10132;50.864;5.176;2024-02-15T03:21:33;13.10;99.90
19941;DHT22;10132;50.864;5.176;2024-02-15T03:23:36;13.10;99.90
19941;DHT22;10132;50.864;5.176;2024-02-15T03:25:38;13.10;99.90
19941;DHT22;10132;50.864;5.176;2024-02-15T03:27:40;13.10;99.90
19941;DHT22;10132;50.864;5.176;2024-02-15T03:29:41;13.10;99.90
19941;DHT22;10132;50.864;5.176;2024-02-15T03:31:44;13.10;99.90
19941;DHT22;10132;50.864;5.176;2024-02-15T03:33:48;13.20;99.90
19941;DHT22;10132;50.864;5.176;2024-02-15T03:35:51;13.20;99.90
19941;DHT22;10132;50.864;5.176;2024-02-15T03:37:53;13.20;99.90
19941;DHT22;10132;50.864;5.176;2024-02-15T03:39:55;13.20;99.90
19941;DHT22;10132;50.864;5.176;2024-02-15T03:41:57;13.20;99.90
19941;DHT22;10132;50.864;5.176;2024-02-15T03:43:59;13.30;99.90
19941;DHT22;10132;50.864;5.176;2024-02-15T03:46:00;13.30;99.90
19941;DHT22;10132;50.864;5.176;2024-02-15T03:48:04;13.20;99.90
19941;DHT22;10132;50.864;5.176;2024-02-15T03:50:08;13.10;99.90
19941;DHT22;10132;50.864;5.176;2024-02-15T03:52:11;13.10;99.90
19941;DHT22;10132;50.864;5.176;2024-02-15T03:54:13;13.10;99.90
19941;DHT22;10132;50.864;5.176;2024-02-15T03:56:15;13.10;99.90
19941;DHT22;10132;50.864;5.176;2024-02-15T03:58:16;13.10;99.90
19941;DHT22;10132;50.864;5.176;2024-02-15T04:00:18;13.00;99.90
19941;DHT22;10132;50.864;5.176;2024-02-15T04:02:21;13.00;99.90
19941;DHT22;10132;50.864;5.176;2024-02-15T04:04:25;13.10;99.90
19941;DHT22;10132;50.864;5.176;2024-02-15T04:06:27;13.10;99.90
19941;DHT22;10132;50.864;5.176;2024-02-15T04:08:31;13.00;99.90
19941;DHT22;10132;50.864;5.176;2024-02-15T04:10:34;13.00;99.90
19941;DHT22;10132;50.864;5.176;2024-02-15T04:12:36;13.00;99.90
19941;DHT22;10132;50.864;5.176;2024-02-15T04:14:38;12.90;99.90
19941;DHT22;10132;50.864;5.176;2024-02-15T04:16:40;13.00;99.90
19941;DHT22;10132;50.864;5.176;2024-02-15T04:18:42;13.00;99.90
19941;DHT22;10132;50.864;5.176;2024-02-15T04:20:47;13.10;99.90
19941;DHT22;10132;50.864;5.176;2024-02-15T04:22:49;13.10;99.90
19941;DHT22;10132;50.864;5.176;2024-02-15T04:24:51;13.10;99.90
19941;DHT22;10132;50.864;5.176;2024-02-15T04:26:53;13.10;99.90
19941;DHT22;10132;50.864;5.176;2024-02-15T04:28:56;13.10;99.90
19941;DHT22;10132;50.864;5.176;2024-02-15T04:30:59;13.00;99.90
19941;DHT22;10132;50.864;5.176;2024-02-15T04:33:01;13.00;99.90
19941;DHT22;10132;50.864;5.176;2024-02-15T04:35:03;13.10;99.90
19941;DHT22;10132;50.864;5.176;2024-02-15T04:37:07;13.00;99.90
19941;DHT22;10132;50.864;5.176;2024-02-15T04:39:09;13.00;99.90
19941;DHT22;10132;50.864;5.176;2024-02-15T04:41:16;13.00;99.90
19941;DHT22;10132;50.864;5.176;2024-02-15T04:43:20;13.00;99.90
19941;DHT22;10132;50.864;5.176;2024-02-15T04:45:23;13.10;99.90
19941;DHT22;10132;50.864;5.176;2024-02-15T04:47:25;13.10;99.90
19941;DHT22;10132;50.864;5.176;2024-02-15T04:49:27;13.20;99.90
19941;DHT22;10132;50.864;5.176;2024-02-15T04:51:29;13.20;99.90
19941;DHT22;10132;50.864;5.176;2024-02-15T04:53:34;13.20;99.90
19941;DHT22;10132;50.864;5.176;2024-02-15T04:55:37;13.20;99.90
19941;DHT22;10132;50.864;5.176;2024-02-15T04:57:39;13.20;99.90
19941;DHT22;10132;50.864;5.176;2024-02-15T04:59:41;13.20;99.90
19941;DHT22;10132;50.864;5.176;2024-02-15T05:01:47;13.20;99.90
19941;DHT22;10132;50.864;5.176;2024-02-15T05:03:50;13.20;99.90
19941;DHT22;10132;50.864;5.176;2024-02-15T05:05:52;13.20;99.90
19941;DHT22;10132;50.864;5.176;2024-02-15T05:07:54;13.10;99.90
19941;DHT22;10132;50.864;5.176;2024-02-15T05:09:57;13.10;99.90
19941;DHT22;10132;50.864;5.176;2024-02-15T05:11:59;13.10;99.90
19941;DHT22;10132;50.864;5.176;2024-02-15T05:14:02;13.10;99.90
19941;DHT22;10132;50.864;5.176;2024-02-15T05:16:07;13.10;99.90
19941;DHT22;10132;50.864;5.176;2024-02-15T05:18:09;13.10;99.90
19941;DHT22;10132;50.864;5.176;2024-02-15T05:20:12;13.00;99.90
19941;DHT22;10132;50.864;5.176;2024-02-15T05:22:14;13.00;99.90
19941;DHT22;10132;50.864;5.176;2024-02-15T05:24:17;13.00;99.90
19941;DHT22;10132;50.864;5.176;2024-02-15T05:26:21;13.00;99.90
19941;DHT22;10132;50.864;5.176;2024-02-15T05:28:24;12.90;99.90
19941;DHT22;10132;50.864;5.176;2024-02-15T05:30:27;12.90;99.90
19941;DHT22;10132;50.864;5.176;2024-02-15T05:32:30;12.90;99.90
19941;DHT22;10132;50.864;5.176;2024-02-15T05:34:32;12.90;99.90
19941;DHT22;10132;50.864;5.176;2024-02-15T05:36:40;13.00;99.90
19941;DHT22;10132;50.864;5.176;2024-02-15T05:38:42;13.00;99.90
19941;DHT22;10132;50.864;5.176;2024-02-15T05:40:45;13.00;99.90
19941;DHT22;10132;50.864;5.176;2024-02-15T05:42:55;13.00;99.90
19941;DHT22;10132;50.864;5.176;2024-02-15T05:45:27;13.00;99.90
19941;DHT22;10132;50.864;5.176;2024-02-15T05:47:30;13.00;99.90
19941;DHT22;10132;50.864;5.176;2024-02-15T05:49:32;13.10;99.90
19941;DHT22;10132;50.864;5.176;2024-02-15T05:51:34;13.10;99.90
19941;DHT22;10132;50.864;5.176;2024-02-15T05:53:36;13.20;99.90
19941;DHT22;10132;50.864;5.176;2024-02-15T05:55:38;13.20;99.90
19941;DHT22;10132;50.864;5.176;2024-02-15T05:57:44;13.10;99.90
19941;DHT22;10132;50.864;5.176;2024-02-15T05:59:47;13.10;99.90
19941;DHT22;10132;50.864;5.176;2024-02-15T06:01:49;13.20;99.90
19941;DHT22;10132;50.864;5.176;2024-02-15T06:03:51;13.10;99.90
19941;DHT22;10132;50.864;5.176;2024-02-15T06:05:56;13.10;99.90
19941;DHT22;10132;50.864;5.176;2024-02-15T06:07:58;13.20;99.90
19941;DHT22;10132;50.864;5.176;2024-02-15T06:10:00;13.20;99.90
19941;DHT22;10132;50.864;5.176;2024-02-15T06:12:04;13.10;99.90
19941;DHT22;10132;50.864;5.176;2024-02-15T06:14:07;13.10;99.90
19941;DHT22;10132;50.864;5.176;2024-02-15T06:16:10;13.10;99.90
19941;DHT22;10132;50.864;5.176;2024-02-15T06:18:13;13.00;99.90
19941;DHT22;10132;50.864;5.176;2024-02-15T06:20:17;13.00;99.90
19941;DHT22;10132;50.864;5.176;2024-02-15T06:22:20;12.90;99.90
19941;DHT22;10132;50.864;5.176;2024-02-15T06:24:23;13.00;99.90
19941;DHT22;10132;50.864;5.176;2024-02-15T06:26:26;13.00;99.90
19941;DHT22;10132;50.864;5.176;2024-02-15T06:28:29;13.10;99.90
19941;DHT22;10132;50.864;5.176;2024-02-15T06:30:48;13.00;99.90
19941;DHT22;10132;50.864;5.176;2024-02-15T06:33:08;13.00;99.90
19941;DHT22;10132;50.864;5.176;2024-02-15T06:35:27;13.00;99.90
19941;DHT22;10132;50.864;5.176;2024-02-15T06:37:47;13.00;99.90
19941;DHT22;10132;50.864;5.176;2024-02-15T06:40:07;13.00;99.90
19941;DHT22;10132;50.864;5.176;2024-02-15T06:42:10;13.00;99.90
19941;DHT22;10132;50.864;5.176;2024-02-15T06:44:15;13.00;99.90
19941;DHT22;10132;50.864;5.176;2024-02-15T06:46:17;13.00;99.90
19941;DHT22;10132;50.864;5.176;2024-02-15T06:48:21;13.00;99.90
19941;DHT22;10132;50.864;5.176;2024-02-15T06:50:23;13.00;99.90
19941;DHT22;10132;50.864;5.176;2024-02-15T06:52:26;12.90;99.90
19941;DHT22;10132;50.864;5.176;2024-02-15T06:54:29;12.90;99.90
19941;DHT22;10132;50.864;5.176;2024-02-15T06:56:30;12.90;99.90
19941;DHT22;10132;50.864;5.176;2024-02-15T06:58:33;12.90;99.90
19941;DHT22;10132;50.864;5.176;2024-02-15T07:00:34;12.90;99.90
19941;DHT22;10132;50.864;5.176;2024-02-15T07:02:36;12.90;99.90
19941;DHT22;10132;50.864;5.176;2024-02-15T07:04:39;12.90;99.90
19941;DHT22;10132;50.864;5.176;2024-02-15T07:06:41;12.90;99.90
19941;DHT22;10132;50.864;5.176;2024-02-15T07:08:45;12.80;99.90
19941;DHT22;10132;50.864;5.176;2024-02-15T07:10:48;12.80;99.90
19941;DHT22;10132;50.864;5.176;2024-02-15T07:12:49;12.80;99.90
19941;DHT22;10132;50.864;5.176;2024-02-15T07:14:51;12.80;99.90
19941;DHT22;10132;50.864;5.176;2024-02-15T07:16:52;12.80;99.90
19941;DHT22;10132;50.864;5.176;2024-02-15T07:18:57;12.80;99.90
19941;DHT22;10132;50.864;5.176;2024-02-15T07:21:01;12.70;99.90
19941;DHT22;10132;50.864;5.176;2024-02-15T07:23:09;12.80;99.90
19941;DHT22;10132;50.864;5.176;2024-02-15T07:25:11;12.90;99.90
19941;DHT22;10132;50.864;5.176;2024-02-15T07:27:14;12.90;99.90
19941;DHT22;10132;50.864;5.176;2024-02-15T07:29:17;12.90;99.90
19941;DHT22;10132;50.864;5.176;2024-02-15T07:31:19;12.90;99.90
19941;DHT22;10132;50.864;5.176;2024-02-15T07:33:22;12.90;99.90
19941;DHT22;10132;50.864;5.176;2024-02-15T07:35:24;12.90;99.90
19941;DHT22;10132;50.864;5.176;2024-02-15T07:37:28;12.80;99.90
19941;DHT22;10132;50.864;5.176;2024-02-15T07:39:30;12.90;99.90
19941;DHT22;10132;50.864;5.176;2024-02-15T07:41:32;12.90;99.90
19941;DHT22;10132;50.864;5.176;2024-02-15T07:43:33;13.00;99.90
19941;DHT22;10132;50.864;5.176;2024-02-15T07:45:35;13.00;99.90
19941;DHT22;10132;50.864;5.176;2024-02-15T07:47:37;13.10;99.90
19941;DHT22;10132;50.864;5.176;2024-02-15T07:49:39;13.20;99.90
19941;DHT22;10132;50.864;5.176;2024-02-15T07:51:44;13.20;99.90
19941;DHT22;10132;50.864;5.176;2024-02-15T07:53:46;13.20;99.90
19941;DHT22;10132;50.864;5.176;2024-02-15T07:55:48;13.20;99.90
19941;DHT22;10132;50.864;5.176;2024-02-15T07:57:51;13.20;99.90
19941;DHT22;10132;50.864;5.176;2024-02-15T07:59:53;13.30;99.90
19941;DHT22;10132;50.864;5.176;2024-02-15T08:01:56;13.30;99.90
19941;DHT22;10132;50.864;5.176;2024-02-15T08:03:58;13.30;99.90
19941;DHT22;10132;50.864;5.176;2024-02-15T08:06:00;13.30;99.90
19941;DHT22;10132;50.864;5.176;2024-02-15T08:08:02;13.20;99.90
19941;DHT22;10132;50.864;5.176;2024-02-15T08:10:08;13.20;99.90
19941;DHT22;10132;50.864;5.176;2024-02-15T08:12:13;13.20;99.90
19941;DHT22;10132;50.864;5.176;2024-02-15T08:14:15;13.30;99.90
19941;DHT22;10132;50.864;5.176;2024-02-15T08:16:18;13.30;99.90
19941;DHT22;10132;50.864;5.176;2024-02-15T08:18:21;13.30;99.90
19941;DHT22;10132;50.864;5.176;2024-02-15T08:20:22;13.30;99.90
19941;DHT22;10132;50.864;5.176;2024-02-15T08:22:24;13.50;99.90
19941;DHT22;10132;50.864;5.176;2024-02-15T08:24:26;13.50;99.90
19941;DHT22;10132;50.864;5.176;2024-02-15T08:26:30;13.60;99.90
19941;DHT22;10132;50.864;5.176;2024-02-15T08:28:32;13.50;99.90
19941;DHT22;10132;50.864;5.176;2024-02-15T08:30:34;13.60;99.90
19941;DHT22;10132;50.864;5.176;2024-02-15T08:32:38;13.60;99.90
19941;DHT22;10132;50.864;5.176;2024-02-15T08:34:40;13.60;99.90
19941;DHT22;10132;50.864;5.176;2024-02-15T08:36:42;13.70;99.90
19941;DHT22;10132;50.864;5.176;2024-02-15T08:38:44;13.80;99.90
19941;DHT22;10132;50.864;5.176;2024-02-15T08:40:47;13.70;99.90
19941;DHT22;10132;50.864;5.176;2024-02-15T08:42:50;13.70;99.90
19941;DHT22;10132;50.864;5.176;2024-02-15T08:44:52;13.70;99.90
19941;DHT22;10132;50.864;5.176;2024-02-15T08:46:54;13.80;99.90
19941;DHT22;10132;50.864;5.176;2024-02-15T08:48:57;13.90;99.90
19941;DHT22;10132;50.864;5.176;2024-02-15T08:51:01;14.00;99.90
19941;DHT22;10132;50.864;5.176;2024-02-15T08:53:03;13.90;99.90
19941;DHT22;10132;50.864;5.176;2024-02-15T08:55:08;14.00;99.90
19941;DHT22;10132;50.864;5.176;2024-02-15T08:57:11;14.00;99.90
19941;DHT22;10132;50.864;5.176;2024-02-15T08:59:15;14.00;99.90
19941;DHT22;10132;50.864;5.176;2024-02-15T09:01:18;14.10;99.90
19941;DHT22;10132;50.864;5.176;2024-02-15T09:03:20;14.20;99.90
19941;DHT22;10132;50.864;5.176;2024-02-15T09:05:21;14.30;99.90
19941;DHT22;10132;50.864;5.176;2024-02-15T09:07:23;14.10;99.90
19941;DHT22;10132;50.864;5.176;2024-02-15T09:09:25;14.20;99.90
19941;DHT22;10132;50.864;5.176;2024-02-15T09:11:28;14.30;99.90
19941;DHT22;10132;50.864;5.176;2024-02-15T09:13:30;14.30;99.90
19941;DHT22;10132;50.864;5.176;2024-02-15T09:15:34;14.30;99.90
19941;DHT22;10132;50.864;5.176;2024-02-15T09:17:36;14.30;99.90
19941;DHT22;10132;50.864;5.176;2024-02-15T09:19:39;14.40;99.90
19941;DHT22;10132;50.864;5.176;2024-02-15T09:21:42;14.60;99.90
19941;DHT22;10132;50.864;5.176;2024-02-15T09:23:44;14.60;99.90
19941;DHT22;10132;50.864;5.176;2024-02-15T09:25:46;14.70;99.90
19941;DHT22;10132;50.864;5.176;2024-02-15T09:27:51;14.80;99.90
19941;DHT22;10132;50.864;5.176;2024-02-15T09:29:54;14.90;99.90
19941;DHT22;10132;50.864;5.176;2024-02-15T09:31:58;14.90;99.90
19941;DHT22;10132;50.864;5.176;2024-02-15T09:34:02;14.90;99.90
19941;DHT22;10132;50.864;5.176;2024-02-15T09:36:06;14.90;99.90
19941;DHT22;10132;50.864;5.176;2024-02-15T09:38:08;15.10;99.90
19941;DHT22;10132;50.864;5.176;2024-02-15T09:40:11;15.10;99.90
19941;DHT22;10132;50.864;5.176;2024-02-15T09:42:13;15.20;99.90
19941;DHT22;10132;50.864;5.176;2024-02-15T09:44:15;15.10;99.90
19941;DHT22;10132;50.864;5.176;2024-02-15T09:46:17;15.10;99.90
19941;DHT22;10132;50.864;5.176;2024-02-15T09:48:25;15.10;99.90
19941;DHT22;10132;50.864;5.176;2024-02-15T09:50:29;15.20;99.90
19941;DHT22;10132;50.864;5.176;2024-02-15T09:52:34;15.10;99.90
19941;DHT22;10132;50.864;5.176;2024-02-15T09:54:39;15.20;99.90
19941;DHT22;10132;50.864;5.176;2024-02-15T09:56:41;15.20;99.90
19941;DHT22;10132;50.864;5.176;2024-02-15T09:58:43;15.30;99.90
19941;DHT22;10132;50.864;5.176;2024-02-15T10:00:45;15.30;99.90
19941;DHT22;10132;50.864;5.176;2024-02-15T10:02:49;15.30;99.90
19941;DHT22;10132;50.864;5.176;2024-02-15T10:04:54;15.40;99.90
19941;DHT22;10132;50.864;5.176;2024-02-15T10:06:56;15.40;99.90
19941;DHT22;10132;50.864;5.176;2024-02-15T10:09:23;15.30;99.90
19941;DHT22;10132;50.864;5.176;2024-02-15T10:11:26;15.50;99.90
19941;DHT22;10132;50.864;5.176;2024-02-15T10:13:29;15.60;99.90
19941;DHT22;10132;50.864;5.176;2024-02-15T10:15:34;15.60;99.90
19941;DHT22;10132;50.864;5.176;2024-02-15T10:17:36;15.50;99.90
19941;DHT22;10132;50.864;5.176;2024-02-15T10:19:38;15.60;99.90
19941;DHT22;10132;50.864;5.176;2024-02-15T10:21:40;15.70;99.90
19941;DHT22;10132;50.864;5.176;2024-02-15T10:23:42;15.60;99.90
19941;DHT22;10132;50.864;5.176;2024-02-15T10:25:45;15.60;99.90
19941;DHT22;10132;50.864;5.176;2024-02-15T10:27:47;15.80;99.90
19941;DHT22;10132;50.864;5.176;2024-02-15T10:29:48;16.00;99.90
19941;DHT22;10132;50.864;5.176;2024-02-15T10:31:53;16.10;99.90
19941;DHT22;10132;50.864;5.176;2024-02-15T10:33:59;16.20;99.90
19941;DHT22;10132;50.864;5.176;2024-02-15T10:36:08;16.30;99.90
19941;DHT22;10132;50.864;5.176;2024-02-15T10:38:12;16.30;99.90
19941;DHT22;10132;50.864;5.176;2024-02-15T10:40:17;16.50;99.90
19941;DHT22;10132;50.864;5.176;2024-02-15T10:42:19;16.50;99.90
19941;DHT22;10132;50.864;5.176;2024-02-15T10:44:22;16.30;99.90
19941;DHT22;10132;50.864;5.176;2024-02-15T10:46:25;16.40;99.90
19941;DHT22;10132;50.864;5.176;2024-02-15T10:48:26;16.50;99.90
19941;DHT22;10132;50.864;5.176;2024-02-15T10:50:29;16.80;99.90
19941;DHT22;10132;50.864;5.176;2024-02-15T10:52:31;17.10;99.90
19941;DHT22;10132;50.864;5.176;2024-02-15T10:54:46;17.30;99.90
19941;DHT22;10132;50.864;5.176;2024-02-15T10:56:51;17.30;99.90
19941;DHT22;10132;50.864;5.176;2024-02-15T10:59:07;17.10;99.90
19941;DHT22;10132;50.864;5.176;2024-02-15T11:01:17;17.20;99.90
19941;DHT22;10132;50.864;5.176;2024-02-15T11:03:24;17.00;99.90
19941;DHT22;10132;50.864;5.176;2024-02-15T11:05:27;17.00;99.90
19941;DHT22;10132;50.864;5.176;2024-02-15T11:07:31;17.10;99.90
19941;DHT22;10132;50.864;5.176;2024-02-15T11:09:34;17.10;99.90
19941;DHT22;10132;50.864;5.176;2024-02-15T11:11:38;17.30;99.90
19941;DHT22;10132;50.864;5.176;2024-02-15T11:13:41;17.20;99.90
19941;DHT22;10132;50.864;5.176;2024-02-15T11:15:45;17.40;99.90
19941;DHT22;10132;50.864;5.176;2024-02-15T11:17:48;17.20;99.90
19941;DHT22;10132;50.864;5.176;2024-02-15T11:19:54;17.40;99.90
19941;DHT22;10132;50.864;5.176;2024-02-15T11:21:57;17.70;99.90
19941;DHT22;10132;50.864;5.176;2024-02-15T11:24:24;17.70;99.90
19941;DHT22;10132;50.864;5.176;2024-02-15T11:26:45;17.60;99.90
19941;DHT22;10132;50.864;5.176;2024-02-15T11:28:51;17.80;99.90
19941;DHT22;10132;50.864;5.176;2024-02-15T11:30:55;17.50;99.90
19941;DHT22;10132;50.864;5.176;2024-02-15T11:32:57;17.40;99.90
19941;DHT22;10132;50.864;5.176;2024-02-15T11:35:03;17.30;99.90
19941;DHT22;10132;50.864;5.176;2024-02-15T11:37:58;17.00;99.90
19941;DHT22;10132;50.864;5.176;2024-02-15T11:40:05;17.00;99.90
19941;DHT22;10132;50.864;5.176;2024-02-15T11:42:28;17.10;99.90
19941;DHT22;10132;50.864;5.176;2024-02-15T11:44:30;17.20;99.90
19941;DHT22;10132;50.864;5.176;2024-02-15T11:46:32;17.20;99.90
19941;DHT22;10132;50.864;5.176;2024-02-15T11:48:36;17.20;99.90
19941;DHT22;10132;50.864;5.176;2024-02-15T11:50:40;17.30;99.90
19941;DHT22;10132;50.864;5.176;2024-02-15T11:52:42;17.40;99.90
19941;DHT22;10132;50.864;5.176;2024-02-15T11:54:43;17.40;99.90
19941;DHT22;10132;50.864;5.176;2024-02-15T11:56:57;17.50;99.90
19941;DHT22;10132;50.864;5.176;2024-02-15T11:59:15;17.50;99.90
19941;DHT22;10132;50.864;5.176;2024-02-15T12:01:29;17.50;99.90
19941;DHT22;10132;50.864;5.176;2024-02-15T12:03:52;17.30;99.90
19941;DHT22;10132;50.864;5.176;2024-02-15T12:06:12;17.30;99.90
19941;DHT22;10132;50.864;5.176;2024-02-15T12:08:36;17.30;99.90
19941;DHT22;10132;50.864;5.176;2024-02-15T12:10:58;17.40;99.90
19941;DHT22;10132;50.864;5.176;2024-02-15T12:13:18;17.30;99.90
19941;DHT22;10132;50.864;5.176;2024-02-15T12:15:38;17.30;99.90
19941;DHT22;10132;50.864;5.176;2024-02-15T12:18:13;17.50;99.90
19941;DHT22;10132;50.864;5.176;2024-02-15T12:20:33;17.50;99.90
19941;DHT22;10132;50.864;5.176;2024-02-15T12:22:36;17.40;99.90
19941;DHT22;10132;50.864;5.176;2024-02-15T12:24:41;17.50;99.90
19941;DHT22;10132;50.864;5.176;2024-02-15T12:26:43;17.60;99.90
19941;DHT22;10132;50.864;5.176;2024-02-15T12:28:50;17.80;99.90
19941;DHT22;10132;50.864;5.176;2024-02-15T12:30:56;18.10;99.90
19941;DHT22;10132;50.864;5.176;2024-02-15T12:33:09;18.30;99.90
19941;DHT22;10132;50.864;5.176;2024-02-15T12:35:13;18.50;99.90
19941;DHT22;10132;50.864;5.176;2024-02-15T12:37:18;18.60;99.90
19941;DHT22;10132;50.864;5.176;2024-02-15T12:39:24;18.70;99.90
19941;DHT22;10132;50.864;5.176;2024-02-15T12:41:28;18.80;99.90
19941;DHT22;10132;50.864;5.176;2024-02-15T12:43:31;18.80;99.90
19941;DHT22;10132;50.864;5.176;2024-02-15T12:45:35;18.70;99.90
19941;DHT22;10132;50.864;5.176;2024-02-15T12:47:39;18.40;99.90
19941;DHT22;10132;50.864;5.176;2024-02-15T12:49:40;18.30;99.90
19941;DHT22;10132;50.864;5.176;2024-02-15T12:51:50;18.20;99.90
19941;DHT22;10132;50.864;5.176;2024-02-15T12:53:53;18.20;99.90
19941;DHT22;10132;50.864;5.176;2024-02-15T12:55:55;18.10;99.90
19941;DHT22;10132;50.864;5.176;2024-02-15T12:57:57;18.10;99.90
19941;DHT22;10132;50.864;5.176;2024-02-15T12:59:58;18.10;99.90
19941;DHT22;10132;50.864;5.176;2024-02-15T13:02:00;18.00;99.90
19941;DHT22;10132;50.864;5.176;2024-02-15T13:04:04;18.00;99.90